sensor_id;sensor_type;location;lat;lon;timestamp;P1;durP1;ratioP1;P2;durP2;ratioP2
2009;SDS011;1008;47.404;8.502;2023-04-06T00:00:24;6.83;;;4.70;;
2009;SDS011;1008;47.404;8.502;2023-04-06T00:02:51;9.43;;;4.40;;
2009;SDS011;1008;47.404;8.502;2023-04-06T00:05:18;7.70;;;5.43;;
2009;SDS011;1008;47.404;8.502;2023-04-06T00:07:45;6.50;;;4.60;;
2009;SDS011;1008;47.404;8.502;2023-04-06T00:10:12;5.73;;;4.30;;
2009;SDS011;1008;47.404;8.502;2023-04-06T00:12:39;5.83;;;3.87;;
2009;SDS011;1008;47.404;8.502;2023-04-06T00:15:07;6.83;;;4.43;;
2009;SDS011;1008;47.404;8.502;2023-04-06T00:17:35;7.97;;;4.90;;
2009;SDS011;1008;47.404;8.502;2023-04-06T00:20:02;6.33;;;4.27;;
2009;SDS011;1008;47.404;8.502;2023-04-06T00:22:29;5.83;;;4.40;;
2009;SDS011;1008;47.404;8.502;2023-04-06T00:24:56;5.33;;;4.40;;
2009;SDS011;1008;47.404;8.502;2023-04-06T00:27:22;6.37;;;4.50;;
2009;SDS011;1008;47.404;8.502;2023-04-06T00:29:49;7.03;;;4.60;;
2009;SDS011;1008;47.404;8.502;2023-04-06T00:32:18;6.90;;;4.80;;
2009;SDS011;1008;47.404;8.502;2023-04-06T00:34:45;5.60;;;4.30;;
2009;SDS011;1008;47.404;8.502;2023-04-06T00:37:11;6.77;;;4.40;;
2009;SDS011;1008;47.404;8.502;2023-04-06T00:39:38;8.30;;;4.70;;
2009;SDS011;1008;47.404;8.502;2023-04-06T00:42:08;7.27;;;3.83;;
2009;SDS011;1008;47.404;8.502;2023-04-06T00:44:37;6.30;;;4.43;;
2009;SDS011;1008;47.404;8.502;2023-04-06T00:47:04;6.63;;;4.67;;
2009;SDS011;1008;47.404;8.502;2023-04-06T00:49:33;6.60;;;4.20;;
2009;SDS011;1008;47.404;8.502;2023-04-06T00:52:00;7.83;;;5.10;;
2009;SDS011;1008;47.404;8.502;2023-04-06T00:54:27;8.27;;;4.97;;
2009;SDS011;1008;47.404;8.502;2023-04-06T00:56:54;5.07;;;4.20;;
2009;SDS011;1008;47.404;8.502;2023-04-06T00:59:22;8.17;;;4.97;;
2009;SDS011;1008;47.404;8.502;2023-04-06T01:01:48;7.83;;;5.13;;
2009;SDS011;1008;47.404;8.502;2023-04-06T01:04:15;5.77;;;4.37;;
2009;SDS011;1008;47.404;8.502;2023-04-06T01:06:43;5.70;;;4.03;;
2009;SDS011;1008;47.404;8.502;2023-04-06T01:09:10;9.63;;;4.97;;
2009;SDS011;1008;47.404;8.502;2023-04-06T01:11:37;9.27;;;4.50;;
2009;SDS011;1008;47.404;8.502;2023-04-06T01:14:04;6.73;;;4.90;;
2009;SDS011;1008;47.404;8.502;2023-04-06T01:16:31;7.13;;;4.80;;
2009;SDS011;1008;47.404;8.502;2023-04-06T01:18:58;6.40;;;4.10;;
2009;SDS011;1008;47.404;8.502;2023-04-06T01:21:24;8.27;;;4.63;;
2009;SDS011;1008;47.404;8.502;2023-04-06T01:23:53;5.70;;;4.67;;
2009;SDS011;1008;47.404;8.502;2023-04-06T01:26:19;7.70;;;4.17;;
2009;SDS011;1008;47.404;8.502;2023-04-06T01:28:46;9.73;;;5.07;;
2009;SDS011;1008;47.404;8.502;2023-04-06T01:31:13;8.37;;;4.77;;
2009;SDS011;1008;47.404;8.502;2023-04-06T01:33:40;10.67;;;5.30;;
2009;SDS011;1008;47.404;8.502;2023-04-06T01:36:07;6.17;;;4.80;;
2009;SDS011;1008;47.404;8.502;2023-04-06T01:38:34;7.63;;;5.30;;
2009;SDS011;1008;47.404;8.502;2023-04-06T01:41:02;12.87;;;6.73;;
2009;SDS011;1008;47.404;8.502;2023-04-06T01:43:29;15.47;;;7.93;;
2009;SDS011;1008;47.404;8.502;2023-04-06T01:45:56;15.10;;;9.07;;
2009;SDS011;1008;47.404;8.502;2023-04-06T01:48:23;25.70;;;11.70;;
2009;SDS011;1008;47.404;8.502;2023-04-06T01:50:50;35.97;;;14.47;;
2009;SDS011;1008;47.404;8.502;2023-04-06T01:53:16;22.70;;;10.70;;
2009;SDS011;1008;47.404;8.502;2023-04-06T01:55:43;25.40;;;11.30;;
2009;SDS011;1008;47.404;8.502;2023-04-06T01:58:11;25.40;;;10.67;;
2009;SDS011;1008;47.404;8.502;2023-04-06T02:00:38;17.50;;;9.37;;
2009;SDS011;1008;47.404;8.502;2023-04-06T02:03:05;19.70;;;10.00;;
2009;SDS011;1008;47.404;8.502;2023-04-06T02:05:32;15.20;;;7.83;;
2009;SDS011;1008;47.404;8.502;2023-04-06T02:08:03;15.63;;;8.70;;
2009;SDS011;1008;47.404;8.502;2023-04-06T02:10:31;11.73;;;7.43;;
2009;SDS011;1008;47.404;8.502;2023-04-06T02:12:58;12.90;;;7.03;;
2009;SDS011;1008;47.404;8.502;2023-04-06T02:15:26;12.77;;;7.20;;
2009;SDS011;1008;47.404;8.502;2023-04-06T02:17:53;14.40;;;7.37;;
2009;SDS011;1008;47.404;8.502;2023-04-06T02:20:20;12.67;;;6.10;;
2009;SDS011;1008;47.404;8.502;2023-04-06T02:22:47;10.87;;;6.87;;
2009;SDS011;1008;47.404;8.502;2023-04-06T02:25:14;12.70;;;7.07;;
2009;SDS011;1008;47.404;8.502;2023-04-06T02:27:41;12.40;;;6.07;;
2009;SDS011;1008;47.404;8.502;2023-04-06T02:30:08;15.90;;;7.60;;
2009;SDS011;1008;47.404;8.502;2023-04-06T02:32:37;14.03;;;7.27;;
2009;SDS011;1008;47.404;8.502;2023-04-06T02:35:04;11.37;;;6.50;;
2009;SDS011;1008;47.404;8.502;2023-04-06T02:37:31;12.90;;;7.17;;
2009;SDS011;1008;47.404;8.502;2023-04-06T02:39:58;14.70;;;6.97;;
2009;SDS011;1008;47.404;8.502;2023-04-06T02:42:24;18.00;;;7.63;;
2009;SDS011;1008;47.404;8.502;2023-04-06T02:44:51;9.90;;;6.17;;
2009;SDS011;1008;47.404;8.502;2023-04-06T02:47:18;9.70;;;6.27;;
2009;SDS011;1008;47.404;8.502;2023-04-06T02:49:46;8.93;;;6.10;;
2009;SDS011;1008;47.404;8.502;2023-04-06T02:52:13;10.87;;;6.37;;
2009;SDS011;1008;47.404;8.502;2023-04-06T02:54:40;8.50;;;5.40;;
2009;SDS011;1008;47.404;8.502;2023-04-06T02:57:07;9.17;;;5.60;;
2009;SDS011;1008;47.404;8.502;2023-04-06T02:59:34;12.73;;;5.10;;
2009;SDS011;1008;47.404;8.502;2023-04-06T03:02:00;12.30;;;5.40;;
2009;SDS011;1008;47.404;8.502;2023-04-06T03:04:27;8.63;;;5.93;;
2009;SDS011;1008;47.404;8.502;2023-04-06T03:06:55;8.93;;;5.83;;
2009;SDS011;1008;47.404;8.502;2023-04-06T03:09:22;11.30;;;5.53;;
2009;SDS011;1008;47.404;8.502;2023-04-06T03:11:49;11.20;;;5.87;;
2009;SDS011;1008;47.404;8.502;2023-04-06T03:14:16;9.47;;;5.90;;
2009;SDS011;1008;47.404;8.502;2023-04-06T03:16:46;8.50;;;5.07;;
2009;SDS011;1008;47.404;8.502;2023-04-06T03:19:13;11.57;;;6.13;;
2009;SDS011;1008;47.404;8.502;2023-04-06T03:21:40;10.30;;;5.07;;
2009;SDS011;1008;47.404;8.502;2023-04-06T03:24:08;10.20;;;5.47;;
2009;SDS011;1008;47.404;8.502;2023-04-06T03:26:35;9.10;;;5.43;;
2009;SDS011;1008;47.404;8.502;2023-04-06T03:29:02;10.50;;;5.30;;
2009;SDS011;1008;47.404;8.502;2023-04-06T03:31:29;7.73;;;6.10;;
2009;SDS011;1008;47.404;8.502;2023-04-06T03:33:56;8.23;;;5.30;;
2009;SDS011;1008;47.404;8.502;2023-04-06T03:36:24;8.13;;;5.70;;
2009;SDS011;1008;47.404;8.502;2023-04-06T03:38:51;8.17;;;5.20;;
2009;SDS011;1008;47.404;8.502;2023-04-06T03:41:19;8.97;;;5.00;;
2009;SDS011;1008;47.404;8.502;2023-04-06T03:43:47;6.73;;;4.77;;
2009;SDS011;1008;47.404;8.502;2023-04-06T03:46:13;9.07;;;5.70;;
2009;SDS011;1008;47.404;8.502;2023-04-06T03:48:40;10.03;;;5.73;;
2009;SDS011;1008;47.404;8.502;2023-04-06T03:51:07;9.80;;;6.00;;
2009;SDS011;1008;47.404;8.502;2023-04-06T03:53:34;8.67;;;5.53;;
2009;SDS011;1008;47.404;8.502;2023-04-06T03:56:01;9.80;;;5.70;;
2009;SDS011;1008;47.404;8.502;2023-04-06T03:58:30;9.00;;;5.00;;
2009;SDS011;1008;47.404;8.502;2023-04-06T04:00:57;8.20;;;4.53;;
2009;SDS011;1008;47.404;8.502;2023-04-06T04:03:23;8.07;;;5.30;;
2009;SDS011;1008;47.404;8.502;2023-04-06T04:05:52;8.10;;;4.90;;
2009;SDS011;1008;47.404;8.502;2023-04-06T04:08:20;5.37;;;4.30;;
2009;SDS011;1008;47.404;8.502;2023-04-06T04:10:47;7.27;;;4.50;;
2009;SDS011;1008;47.404;8.502;2023-04-06T04:13:13;6.70;;;4.47;;
2009;SDS011;1008;47.404;8.502;2023-04-06T04:15:41;6.33;;;4.10;;
2009;SDS011;1008;47.404;8.502;2023-04-06T04:18:08;11.93;;;5.20;;
2009;SDS011;1008;47.404;8.502;2023-04-06T04:20:35;6.87;;;4.57;;
2009;SDS011;1008;47.404;8.502;2023-04-06T04:23:02;8.73;;;4.90;;
2009;SDS011;1008;47.404;8.502;2023-04-06T04:25:28;9.00;;;5.80;;
2009;SDS011;1008;47.404;8.502;2023-04-06T04:27:55;7.57;;;4.40;;
2009;SDS011;1008;47.404;8.502;2023-04-06T04:30:22;10.87;;;5.57;;
2009;SDS011;1008;47.404;8.502;2023-04-06T04:32:50;8.47;;;4.53;;
2009;SDS011;1008;47.404;8.502;2023-04-06T04:35:17;8.30;;;5.10;;
2009;SDS011;1008;47.404;8.502;2023-04-06T04:37:44;7.27;;;5.20;;
2009;SDS011;1008;47.404;8.502;2023-04-06T04:40:11;9.33;;;5.30;;
2009;SDS011;1008;47.404;8.502;2023-04-06T04:42:38;6.90;;;4.67;;
2009;SDS011;1008;47.404;8.502;2023-04-06T04:45:05;8.93;;;5.20;;
2009;SDS011;1008;47.404;8.502;2023-04-06T04:47:32;9.90;;;5.37;;
2009;SDS011;1008;47.404;8.502;2023-04-06T04:50:00;5.73;;;4.50;;
2009;SDS011;1008;47.404;8.502;2023-04-06T04:52:27;5.77;;;4.50;;
2009;SDS011;1008;47.404;8.502;2023-04-06T04:54:54;11.70;;;5.43;;
2009;SDS011;1008;47.404;8.502;2023-04-06T04:57:21;7.00;;;4.70;;
2009;SDS011;1008;47.404;8.502;2023-04-06T04:59:47;13.90;;;5.47;;
2009;SDS011;1008;47.404;8.502;2023-04-06T05:02:15;8.97;;;5.37;;
2009;SDS011;1008;47.404;8.502;2023-04-06T05:04:42;8.40;;;5.47;;
2009;SDS011;1008;47.404;8.502;2023-04-06T05:07:10;11.00;;;5.73;;
2009;SDS011;1008;47.404;8.502;2023-04-06T05:09:37;11.47;;;5.57;;
2009;SDS011;1008;47.404;8.502;2023-04-06T05:12:04;9.13;;;5.20;;
2009;SDS011;1008;47.404;8.502;2023-04-06T05:14:31;8.40;;;5.43;;
2009;SDS011;1008;47.404;8.502;2023-04-06T05:16:58;9.97;;;5.87;;
2009;SDS011;1008;47.404;8.502;2023-04-06T05:19:25;9.53;;;4.97;;
2009;SDS011;1008;47.404;8.502;2023-04-06T05:21:52;8.70;;;5.80;;
2009;SDS011;1008;47.404;8.502;2023-04-06T05:24:20;9.70;;;5.70;;
2009;SDS011;1008;47.404;8.502;2023-04-06T05:26:47;9.03;;;5.60;;
2009;SDS011;1008;47.404;8.502;2023-04-06T05:29:14;8.77;;;5.50;;
2009;SDS011;1008;47.404;8.502;2023-04-06T05:31:41;14.47;;;5.90;;
2009;SDS011;1008;47.404;8.502;2023-04-06T05:34:08;10.10;;;5.20;;
2009;SDS011;1008;47.404;8.502;2023-04-06T05:36:36;8.60;;;5.77;;
2009;SDS011;1008;47.404;8.502;2023-04-06T05:39:02;9.30;;;5.37;;
2009;SDS011;1008;47.404;8.502;2023-04-06T05:41:31;8.80;;;5.30;;
2009;SDS011;1008;47.404;8.502;2023-04-06T05:43:57;9.83;;;5.40;;
2009;SDS011;1008;47.404;8.502;2023-04-06T05:46:24;9.50;;;5.60;;
2009;SDS011;1008;47.404;8.502;2023-04-06T05:48:51;7.63;;;4.90;;
2009;SDS011;1008;47.404;8.502;2023-04-06T05:51:18;10.10;;;5.00;;
2009;SDS011;1008;47.404;8.502;2023-04-06T05:53:45;8.40;;;4.73;;
2009;SDS011;1008;47.404;8.502;2023-04-06T05:56:12;9.33;;;5.33;;
2009;SDS011;1008;47.404;8.502;2023-04-06T05:58:40;8.53;;;5.27;;
2009;SDS011;1008;47.404;8.502;2023-04-06T06:01:07;11.23;;;5.97;;
2009;SDS011;1008;47.404;8.502;2023-04-06T06:03:34;8.03;;;5.60;;
2009;SDS011;1008;47.404;8.502;2023-04-06T06:06:01;7.80;;;5.37;;
2009;SDS011;1008;47.404;8.502;2023-04-06T06:08:30;8.80;;;5.23;;
2009;SDS011;1008;47.404;8.502;2023-04-06T06:10:56;8.67;;;5.90;;
2009;SDS011;1008;47.404;8.502;2023-04-06T06:13:23;11.90;;;6.00;;
2009;SDS011;1008;47.404;8.502;2023-04-06T06:15:51;8.77;;;5.40;;
2009;SDS011;1008;47.404;8.502;2023-04-06T06:18:18;14.20;;;6.13;;
2009;SDS011;1008;47.404;8.502;2023-04-06T06:20:45;7.13;;;5.37;;
2009;SDS011;1008;47.404;8.502;2023-04-06T06:23:12;10.97;;;5.80;;
2009;SDS011;1008;47.404;8.502;2023-04-06T06:25:41;7.70;;;5.57;;
2009;SDS011;1008;47.404;8.502;2023-04-06T06:28:07;7.73;;;5.20;;
2009;SDS011;1008;47.404;8.502;2023-04-06T06:30:34;11.53;;;6.07;;
2009;SDS011;1008;47.404;8.502;2023-04-06T06:33:02;11.50;;;6.10;;
2009;SDS011;1008;47.404;8.502;2023-04-06T06:35:29;10.20;;;5.87;;
2009;SDS011;1008;47.404;8.502;2023-04-06T06:37:56;11.27;;;6.40;;
2009;SDS011;1008;47.404;8.502;2023-04-06T06:40:23;9.83;;;5.50;;
2009;SDS011;1008;47.404;8.502;2023-04-06T06:42:51;10.47;;;6.13;;
2009;SDS011;1008;47.404;8.502;2023-04-06T06:45:17;10.37;;;5.80;;
2009;SDS011;1008;47.404;8.502;2023-04-06T06:47:45;12.17;;;5.83;;
2009;SDS011;1008;47.404;8.502;2023-04-06T06:50:13;7.33;;;5.90;;
2009;SDS011;1008;47.404;8.502;2023-04-06T06:52:40;7.50;;;5.83;;
2009;SDS011;1008;47.404;8.502;2023-04-06T06:55:08;7.50;;;5.50;;
2009;SDS011;1008;47.404;8.502;2023-04-06T06:57:35;10.90;;;5.90;;
2009;SDS011;1008;47.404;8.502;2023-04-06T07:00:03;13.67;;;6.60;;
2009;SDS011;1008;47.404;8.502;2023-04-06T07:02:33;12.37;;;5.60;;
2009;SDS011;1008;47.404;8.502;2023-04-06T07:05:00;12.67;;;6.70;;
2009;SDS011;1008;47.404;8.502;2023-04-06T07:07:28;8.63;;;5.33;;
2009;SDS011;1008;47.404;8.502;2023-04-06T07:09:55;9.20;;;5.60;;
2009;SDS011;1008;47.404;8.502;2023-04-06T07:12:22;9.17;;;5.80;;
2009;SDS011;1008;47.404;8.502;2023-04-06T07:14:49;8.20;;;5.10;;
2009;SDS011;1008;47.404;8.502;2023-04-06T07:17:16;8.27;;;5.80;;
2009;SDS011;1008;47.404;8.502;2023-04-06T07:19:43;7.60;;;5.40;;
2009;SDS011;1008;47.404;8.502;2023-04-06T07:22:10;8.67;;;5.27;;
2009;SDS011;1008;47.404;8.502;2023-04-06T07:24:38;8.63;;;6.07;;
2009;SDS011;1008;47.404;8.502;2023-04-06T07:27:05;7.00;;;4.30;;
2009;SDS011;1008;47.404;8.502;2023-04-06T07:29:32;8.80;;;6.07;;
2009;SDS011;1008;47.404;8.502;2023-04-06T07:31:58;9.80;;;6.10;;
2009;SDS011;1008;47.404;8.502;2023-04-06T07:34:25;8.13;;;5.13;;
2009;SDS011;1008;47.404;8.502;2023-04-06T07:36:52;7.40;;;5.47;;
2009;SDS011;1008;47.404;8.502;2023-04-06T07:39:19;7.43;;;5.10;;
2009;SDS011;1008;47.404;8.502;2023-04-06T07:41:47;8.03;;;5.30;;
2009;SDS011;1008;47.404;8.502;2023-04-06T07:44:14;9.57;;;5.90;;
2009;SDS011;1008;47.404;8.502;2023-04-06T07:46:41;7.00;;;4.90;;
2009;SDS011;1008;47.404;8.502;2023-04-06T07:49:08;9.20;;;5.50;;
2009;SDS011;1008;47.404;8.502;2023-04-06T07:51:35;8.67;;;5.47;;
2009;SDS011;1008;47.404;8.502;2023-04-06T07:54:02;7.90;;;5.30;;
2009;SDS011;1008;47.404;8.502;2023-04-06T07:56:29;7.50;;;5.57;;
2009;SDS011;1008;47.404;8.502;2023-04-06T07:58:57;11.73;;;5.50;;
2009;SDS011;1008;47.404;8.502;2023-04-06T08:01:24;9.80;;;6.20;;
2009;SDS011;1008;47.404;8.502;2023-04-06T08:03:53;8.60;;;5.70;;
2009;SDS011;1008;47.404;8.502;2023-04-06T08:06:21;11.67;;;6.40;;
2009;SDS011;1008;47.404;8.502;2023-04-06T08:08:48;11.80;;;6.97;;
2009;SDS011;1008;47.404;8.502;2023-04-06T08:11:14;16.60;;;6.63;;
2009;SDS011;1008;47.404;8.502;2023-04-06T08:13:41;5.67;;;5.07;;
2009;SDS011;1008;47.404;8.502;2023-04-06T08:16:09;11.40;;;7.13;;
2009;SDS011;1008;47.404;8.502;2023-04-06T08:18:36;10.23;;;6.53;;
2009;SDS011;1008;47.404;8.502;2023-04-06T08:21:03;8.73;;;5.63;;
2009;SDS011;1008;47.404;8.502;2023-04-06T08:23:30;9.03;;;6.77;;
2009;SDS011;1008;47.404;8.502;2023-04-06T08:25:57;8.63;;;5.90;;
2009;SDS011;1008;47.404;8.502;2023-04-06T08:28:23;10.60;;;5.90;;
2009;SDS011;1008;47.404;8.502;2023-04-06T08:30:50;14.13;;;6.43;;
2009;SDS011;1008;47.404;8.502;2023-04-06T08:33:18;10.70;;;6.30;;
2009;SDS011;1008;47.404;8.502;2023-04-06T08:35:45;9.60;;;6.20;;
2009;SDS011;1008;47.404;8.502;2023-04-06T08:38:12;8.90;;;6.00;;
2009;SDS011;1008;47.404;8.502;2023-04-06T08:40:39;9.90;;;5.80;;
2009;SDS011;1008;47.404;8.502;2023-04-06T08:43:09;10.60;;;6.23;;
2009;SDS011;1008;47.404;8.502;2023-04-06T08:45:40;11.97;;;7.07;;
2009;SDS011;1008;47.404;8.502;2023-04-06T08:48:08;9.70;;;6.60;;
2009;SDS011;1008;47.404;8.502;2023-04-06T08:50:37;10.50;;;6.17;;
2009;SDS011;1008;47.404;8.502;2023-04-06T08:53:04;10.13;;;6.00;;
2009;SDS011;1008;47.404;8.502;2023-04-06T08:55:33;10.20;;;5.70;;
2009;SDS011;1008;47.404;8.502;2023-04-06T08:58:00;10.43;;;5.80;;
2009;SDS011;1008;47.404;8.502;2023-04-06T09:00:28;12.70;;;6.47;;
2009;SDS011;1008;47.404;8.502;2023-04-06T09:02:55;10.03;;;6.50;;
2009;SDS011;1008;47.404;8.502;2023-04-06T09:05:23;10.20;;;6.03;;
2009;SDS011;1008;47.404;8.502;2023-04-06T09:07:53;10.80;;;5.83;;
2009;SDS011;1008;47.404;8.502;2023-04-06T09:10:20;9.53;;;6.33;;
2009;SDS011;1008;47.404;8.502;2023-04-06T09:12:48;10.87;;;6.13;;
2009;SDS011;1008;47.404;8.502;2023-04-06T09:15:19;7.90;;;5.67;;
2009;SDS011;1008;47.404;8.502;2023-04-06T09:17:47;8.23;;;4.90;;
2009;SDS011;1008;47.404;8.502;2023-04-06T09:20:13;10.03;;;5.73;;
2009;SDS011;1008;47.404;8.502;2023-04-06T09:22:42;8.73;;;5.43;;
2009;SDS011;1008;47.404;8.502;2023-04-06T09:25:17;7.77;;;5.10;;
2009;SDS011;1008;47.404;8.502;2023-04-06T09:27:45;8.13;;;4.70;;
2009;SDS011;1008;47.404;8.502;2023-04-06T09:30:12;9.10;;;4.80;;
2009;SDS011;1008;47.404;8.502;2023-04-06T09:32:45;6.53;;;4.60;;
2009;SDS011;1008;47.404;8.502;2023-04-06T09:35:12;7.50;;;4.73;;
2009;SDS011;1008;47.404;8.502;2023-04-06T09:37:39;9.20;;;4.97;;
2009;SDS011;1008;47.404;8.502;2023-04-06T09:40:06;10.23;;;5.03;;
2009;SDS011;1008;47.404;8.502;2023-04-06T09:42:35;7.83;;;4.93;;
2009;SDS011;1008;47.404;8.502;2023-04-06T09:45:02;8.33;;;5.23;;
2009;SDS011;1008;47.404;8.502;2023-04-06T09:47:30;9.23;;;5.93;;
2009;SDS011;1008;47.404;8.502;2023-04-06T09:49:58;10.90;;;4.73;;
2009;SDS011;1008;47.404;8.502;2023-04-06T09:52:26;10.30;;;5.80;;
2009;SDS011;1008;47.404;8.502;2023-04-06T09:54:58;9.60;;;5.23;;
2009;SDS011;1008;47.404;8.502;2023-04-06T09:57:29;8.83;;;5.50;;
2009;SDS011;1008;47.404;8.502;2023-04-06T10:00:04;9.73;;;5.33;;
2009;SDS011;1008;47.404;8.502;2023-04-06T10:02:39;8.83;;;5.10;;
2009;SDS011;1008;47.404;8.502;2023-04-06T10:05:13;9.20;;;5.37;;
2009;SDS011;1008;47.404;8.502;2023-04-06T10:07:48;9.47;;;5.13;;
2009;SDS011;1008;47.404;8.502;2023-04-06T10:10:17;10.07;;;5.30;;
2009;SDS011;1008;47.404;8.502;2023-04-06T10:12:44;7.17;;;4.40;;
2009;SDS011;1008;47.404;8.502;2023-04-06T10:15:12;7.13;;;4.77;;
2009;SDS011;1008;47.404;8.502;2023-04-06T10:17:39;11.47;;;5.23;;
2009;SDS011;1008;47.404;8.502;2023-04-06T10:20:07;10.93;;;5.40;;
2009;SDS011;1008;47.404;8.502;2023-04-06T10:22:39;8.23;;;4.57;;
2009;SDS011;1008;47.404;8.502;2023-04-06T10:25:15;8.40;;;4.40;;
2009;SDS011;1008;47.404;8.502;2023-04-06T10:27:42;8.80;;;4.67;;
2009;SDS011;1008;47.404;8.502;2023-04-06T10:30:09;10.73;;;3.83;;
2009;SDS011;1008;47.404;8.502;2023-04-06T10:32:38;7.93;;;4.67;;
2009;SDS011;1008;47.404;8.502;2023-04-06T10:35:08;6.87;;;3.90;;
2009;SDS011;1008;47.404;8.502;2023-04-06T10:37:46;7.63;;;3.70;;
2009;SDS011;1008;47.404;8.502;2023-04-06T10:40:20;5.40;;;3.83;;
2009;SDS011;1008;47.404;8.502;2023-04-06T10:42:49;6.27;;;4.17;;
2009;SDS011;1008;47.404;8.502;2023-04-06T10:45:20;5.53;;;4.20;;
2009;SDS011;1008;47.404;8.502;2023-04-06T10:47:49;5.10;;;3.90;;
2009;SDS011;1008;47.404;8.502;2023-04-06T10:50:18;6.30;;;3.70;;
2009;SDS011;1008;47.404;8.502;2023-04-06T10:52:45;7.03;;;4.50;;
2009;SDS011;1008;47.404;8.502;2023-04-06T10:55:12;6.67;;;4.03;;
2009;SDS011;1008;47.404;8.502;2023-04-06T10:57:40;5.80;;;4.00;;
2009;SDS011;1008;47.404;8.502;2023-04-06T11:00:07;6.90;;;4.47;;
2009;SDS011;1008;47.404;8.502;2023-04-06T11:02:35;8.00;;;4.13;;
2009;SDS011;1008;47.404;8.502;2023-04-06T11:05:04;6.10;;;4.37;;
2009;SDS011;1008;47.404;8.502;2023-04-06T11:07:32;9.13;;;5.07;;
2009;SDS011;1008;47.404;8.502;2023-04-06T11:09:59;7.57;;;4.57;;
2009;SDS011;1008;47.404;8.502;2023-04-06T11:12:26;7.40;;;4.40;;
2009;SDS011;1008;47.404;8.502;2023-04-06T11:14:55;9.10;;;4.90;;
2009;SDS011;1008;47.404;8.502;2023-04-06T11:17:27;7.87;;;4.10;;
2009;SDS011;1008;47.404;8.502;2023-04-06T11:19:54;6.10;;;4.23;;
2009;SDS011;1008;47.404;8.502;2023-04-06T11:22:23;6.17;;;3.93;;
2009;SDS011;1008;47.404;8.502;2023-04-06T11:24:50;9.07;;;4.60;;
2009;SDS011;1008;47.404;8.502;2023-04-06T11:27:17;6.80;;;4.30;;
2009;SDS011;1008;47.404;8.502;2023-04-06T11:29:45;7.13;;;4.40;;
2009;SDS011;1008;47.404;8.502;2023-04-06T11:32:19;7.20;;;4.43;;
2009;SDS011;1008;47.404;8.502;2023-04-06T11:34:47;5.20;;;3.80;;
2009;SDS011;1008;47.404;8.502;2023-04-06T11:37:14;5.90;;;4.33;;
2009;SDS011;1008;47.404;8.502;2023-04-06T11:39:43;6.00;;;4.00;;
2009;SDS011;1008;47.404;8.502;2023-04-06T11:42:20;6.20;;;3.97;;
2009;SDS011;1008;47.404;8.502;2023-04-06T11:44:49;6.53;;;4.30;;
2009;SDS011;1008;47.404;8.502;2023-04-06T11:47:17;5.80;;;4.10;;
2009;SDS011;1008;47.404;8.502;2023-04-06T11:49:45;8.20;;;4.80;;
2009;SDS011;1008;47.404;8.502;2023-04-06T11:52:16;6.80;;;4.60;;
2009;SDS011;1008;47.404;8.502;2023-04-06T11:54:45;9.67;;;5.30;;
2009;SDS011;1008;47.404;8.502;2023-04-06T11:57:13;8.63;;;4.63;;
2009;SDS011;1008;47.404;8.502;2023-04-06T11:59:41;7.63;;;4.30;;
2009;SDS011;1008;47.404;8.502;2023-04-06T12:02:08;5.70;;;3.60;;
2009;SDS011;1008;47.404;8.502;2023-04-06T12:04:35;11.07;;;4.20;;
2009;SDS011;1008;47.404;8.502;2023-04-06T12:07:03;5.43;;;3.30;;
2009;SDS011;1008;47.404;8.502;2023-04-06T12:09:30;5.43;;;3.37;;
2009;SDS011;1008;47.404;8.502;2023-04-06T12:11:58;5.70;;;4.23;;
2009;SDS011;1008;47.404;8.502;2023-04-06T12:14:25;7.40;;;4.50;;
2009;SDS011;1008;47.404;8.502;2023-04-06T12:16:52;6.90;;;4.60;;
2009;SDS011;1008;47.404;8.502;2023-04-06T12:19:19;7.97;;;4.93;;
2009;SDS011;1008;47.404;8.502;2023-04-06T12:21:48;8.73;;;3.70;;
2009;SDS011;1008;47.404;8.502;2023-04-06T12:24:15;6.90;;;4.20;;
2009;SDS011;1008;47.404;8.502;2023-04-06T12:26:42;7.63;;;4.20;;
2009;SDS011;1008;47.404;8.502;2023-04-06T12:29:10;9.27;;;4.07;;
2009;SDS011;1008;47.404;8.502;2023-04-06T12:31:38;6.80;;;4.13;;
2009;SDS011;1008;47.404;8.502;2023-04-06T12:34:06;5.93;;;3.70;;
2009;SDS011;1008;47.404;8.502;2023-04-06T12:36:33;4.47;;;3.60;;
2009;SDS011;1008;47.404;8.502;2023-04-06T12:39:00;6.00;;;3.27;;
2009;SDS011;1008;47.404;8.502;2023-04-06T12:41:27;6.07;;;3.63;;
2009;SDS011;1008;47.404;8.502;2023-04-06T12:43:54;4.90;;;3.60;;
2009;SDS011;1008;47.404;8.502;2023-04-06T12:46:22;5.23;;;3.50;;
2009;SDS011;1008;47.404;8.502;2023-04-06T12:48:50;4.90;;;3.20;;
2009;SDS011;1008;47.404;8.502;2023-04-06T12:51:18;5.10;;;3.50;;
2009;SDS011;1008;47.404;8.502;2023-04-06T12:53:45;7.07;;;4.03;;
2009;SDS011;1008;47.404;8.502;2023-04-06T12:56:12;6.20;;;3.53;;
2009;SDS011;1008;47.404;8.502;2023-04-06T12:58:40;6.37;;;4.00;;
2009;SDS011;1008;47.404;8.502;2023-04-06T13:01:07;6.90;;;3.50;;
2009;SDS011;1008;47.404;8.502;2023-04-06T13:03:37;7.20;;;3.50;;
2009;SDS011;1008;47.404;8.502;2023-04-06T13:06:04;6.03;;;3.37;;
2009;SDS011;1008;47.404;8.502;2023-04-06T13:08:33;6.00;;;4.00;;
2009;SDS011;1008;47.404;8.502;2023-04-06T13:11:00;7.93;;;3.87;;
2009;SDS011;1008;47.404;8.502;2023-04-06T13:13:27;5.47;;;4.10;;
2009;SDS011;1008;47.404;8.502;2023-04-06T13:15:55;7.07;;;3.57;;
2009;SDS011;1008;47.404;8.502;2023-04-06T13:18:26;5.00;;;3.37;;
2009;SDS011;1008;47.404;8.502;2023-04-06T13:20:54;6.47;;;4.50;;
2009;SDS011;1008;47.404;8.502;2023-04-06T13:23:21;4.50;;;3.43;;
2009;SDS011;1008;47.404;8.502;2023-04-06T13:25:48;6.63;;;4.13;;
2009;SDS011;1008;47.404;8.502;2023-04-06T13:28:23;6.40;;;3.53;;
2009;SDS011;1008;47.404;8.502;2023-04-06T13:30:51;5.97;;;3.63;;
2009;SDS011;1008;47.404;8.502;2023-04-06T13:33:17;5.80;;;3.80;;
2009;SDS011;1008;47.404;8.502;2023-04-06T13:35:45;6.37;;;3.90;;
2009;SDS011;1008;47.404;8.502;2023-04-06T13:38:13;7.53;;;4.17;;
2009;SDS011;1008;47.404;8.502;2023-04-06T13:40:41;5.37;;;3.67;;
2009;SDS011;1008;47.404;8.502;2023-04-06T13:43:08;7.27;;;3.83;;
2009;SDS011;1008;47.404;8.502;2023-04-06T13:45:36;6.00;;;3.50;;
2009;SDS011;1008;47.404;8.502;2023-04-06T13:48:03;5.47;;;4.03;;
2009;SDS011;1008;47.404;8.502;2023-04-06T13:50:30;6.50;;;4.13;;
2009;SDS011;1008;47.404;8.502;2023-04-06T13:52:58;5.87;;;3.87;;
2009;SDS011;1008;47.404;8.502;2023-04-06T13:55:26;6.43;;;3.97;;
2009;SDS011;1008;47.404;8.502;2023-04-06T13:57:53;5.00;;;4.00;;
2009;SDS011;1008;47.404;8.502;2023-04-06T14:00:20;5.77;;;4.03;;
2009;SDS011;1008;47.404;8.502;2023-04-06T14:02:47;7.40;;;4.77;;
2009;SDS011;1008;47.404;8.502;2023-04-06T14:05:14;6.40;;;4.00;;
2009;SDS011;1008;47.404;8.502;2023-04-06T14:07:41;6.97;;;4.37;;
2009;SDS011;1008;47.404;8.502;2023-04-06T14:10:08;7.40;;;4.33;;
2009;SDS011;1008;47.404;8.502;2023-04-06T14:12:40;5.80;;;3.97;;
2009;SDS011;1008;47.404;8.502;2023-04-06T14:15:07;4.87;;;3.57;;
2009;SDS011;1008;47.404;8.502;2023-04-06T14:17:35;6.67;;;4.03;;
2009;SDS011;1008;47.404;8.502;2023-04-06T14:20:02;6.07;;;4.40;;
2009;SDS011;1008;47.404;8.502;2023-04-06T14:22:30;6.83;;;4.33;;
2009;SDS011;1008;47.404;8.502;2023-04-06T14:24:56;5.67;;;4.03;;
2009;SDS011;1008;47.404;8.502;2023-04-06T14:27:23;6.50;;;4.27;;
2009;SDS011;1008;47.404;8.502;2023-04-06T14:29:51;7.20;;;3.80;;
2009;SDS011;1008;47.404;8.502;2023-04-06T14:32:19;5.90;;;4.00;;
2009;SDS011;1008;47.404;8.502;2023-04-06T14:34:46;8.60;;;4.30;;
2009;SDS011;1008;47.404;8.502;2023-04-06T14:37:13;5.20;;;3.87;;
2009;SDS011;1008;47.404;8.502;2023-04-06T14:39:40;8.53;;;4.80;;
2009;SDS011;1008;47.404;8.502;2023-04-06T14:42:06;11.73;;;4.50;;
2009;SDS011;1008;47.404;8.502;2023-04-06T14:44:33;5.30;;;3.80;;
2009;SDS011;1008;47.404;8.502;2023-04-06T14:47:03;6.87;;;4.50;;
2009;SDS011;1008;47.404;8.502;2023-04-06T14:49:29;5.90;;;3.70;;
2009;SDS011;1008;47.404;8.502;2023-04-06T14:51:56;6.23;;;4.50;;
2009;SDS011;1008;47.404;8.502;2023-04-06T14:54:25;8.53;;;4.47;;
2009;SDS011;1008;47.404;8.502;2023-04-06T14:56:51;5.50;;;4.20;;
2009;SDS011;1008;47.404;8.502;2023-04-06T14:59:18;4.90;;;4.00;;
2009;SDS011;1008;47.404;8.502;2023-04-06T15:01:45;6.33;;;3.93;;
2009;SDS011;1008;47.404;8.502;2023-04-06T15:04:13;7.70;;;4.20;;
2009;SDS011;1008;47.404;8.502;2023-04-06T15:06:40;7.10;;;4.83;;
2009;SDS011;1008;47.404;8.502;2023-04-06T15:09:06;6.07;;;4.13;;
2009;SDS011;1008;47.404;8.502;2023-04-06T15:11:34;4.97;;;3.67;;
2009;SDS011;1008;47.404;8.502;2023-04-06T15:14:00;11.27;;;6.07;;